Alafaya, FL

6:42 AM EDT on September 20, 2014 (GMT -0400)
UCF Area / WUCF-FM | Change Station
CLOSE
Current Station
Personal Weather Station
Location: Orlando, FL
Elevation: 85 ft
Nearby Weather Stations

Elev 85 ft 28.60 °N, 81.20 °W | Updated 10 seconds ago

Rain
Rain
71.2 °F
Feels Like 71.2 °F
N
0.0
Wind Variable Wind from NE
Gusts 6.0 mph

Today
High -- | Low -- °F
--% Chance of Precip.
Yesterday
High -- | Low -- °F
Precip. -- in
7:12 AM 7:23 PM
Waning Crescent, 13% visible
Pressure 29.91 in
Visibility 10.0 miles
Clouds Mostly Cloudy 600 ft
Overcast 3100 ft
Dew Point 71 °F
Humidity 100%
Rainfall 0.07 in
Snow Depth Not available.
UV 0 out of 12
Pollen 3.90 out of 12
Ozone Good
PM2.5 Good
Flu Activity Not available.
SPECI KORL 201028Z AUTO 05006KT 10SM -RA BKN006 OVC031 22/21 A2991 RMK AO2 P0000 T02220211

More Conditions Fewer Conditions

Pressure 29.91 in
Visibility 10.0 miles
Clouds Mostly Cloudy 600 ft
Overcast 3100 ft
Dew Point 71 °F
Humidity 100%
Rainfall 0.07 in
Snow Depth Not available.
UV 0 out of 12
Pollen 3.90 out of 12
Ozone Good
PM2.5 Good
Flu Activity Not available.
SPECI KORL 201028Z AUTO 05006KT 10SM -RA BKN006 OVC031 22/21 A2991 RMK AO2 P0000 T02220211

More Conditions Fewer Conditions

Nowcast | as of 6:21 am EDT on September 20, 2014

After a brief break the light rain will become more widespread during the morning. The regional radar loop is showing that the light rain covers an area from the southeast Georgia coast to well west and southwest of Tampa in the eastern Gulf of Mexico. Areas of moderate to heavy rain in the Gulf of Mexico southwest of Tampa may maintain their strength and reach locations west of Orlando later in the morning or early afternoon. Additional details...including graphics are available online at: http://www.Srh.NOAA.Gov/mlb/blog.Php

×

10-Day Weather Forecast

Almanac

Astronomy

Sep. 20, 2014 Rise Set
Actual Time 7:12 AM EDT 7:23 PM EDT
Civil Twilight 6:48 AM EDT 7:47 PM EDT
Nautical Twilight 6:21 AM EDT 8:14 PM EDT
Astronomical Twilight 5:53 AM EDT 8:42 PM EDT
Moon 4:03 AM EDT 5:15 PM EDT
Length of Visible Light 12h 58m
Length of Day
12h 11m
Tomorrow will be 1m 41s shorter.
Waning Crescent, 13% of the Moon is Illuminated
Today
Waning Crescent
Sep 24
New
Oct 1
First Quarter
Oct 8
Full
Oct 15
Last Quarter

Today's Extremes

State Highs State Lows

Community

WunderPhotos

Upload Photos

1,754,827 photos uploaded!

WunderBlogs® & News

Nearby

Air Quality

  Air Quality AQ Index Pollutant
Yesterday Good
OZONE
Yesterday Good
PM2.5
Current Good
OZONE
Current Good
PM2.5
Saturday Good
OZONE
Sunday Good
OZONE
Monday Good
OZONE

Snow Depth

Station Depth Elevation
No new snow has been reported.

Earthquake Activity

City Distance Mag. Time & Date
No recent earthquake activity has been reported nearby.
Minimum magnitude displayed is 2.5.

Coastal Water Temperatures

Place Temperature
Trident Pier, FL 84.0 °F
Fort Myers, FL 84.0 °F
Lake Worth, FL 84.9 °F

Nearby Weather Stations